sensor_id;sensor_type;location;lat;lon;timestamp;P1;durP1;ratioP1;P2;durP2;ratioP2
51852;SDS011;37894;53.172;6.598;2023-05-07T00:01:53;32.85;;;22.80;;
51852;SDS011;37894;53.172;6.598;2023-05-07T00:04:19;35.90;;;24.48;;
51852;SDS011;37894;53.172;6.598;2023-05-07T00:06:45;35.42;;;24.38;;
51852;SDS011;37894;53.172;6.598;2023-05-07T00:09:11;32.45;;;23.38;;
51852;SDS011;37894;53.172;6.598;2023-05-07T00:11:37;39.92;;;24.48;;
51852;SDS011;37894;53.172;6.598;2023-05-07T00:14:03;36.53;;;25.02;;
51852;SDS011;37894;53.172;6.598;2023-05-07T00:16:29;34.08;;;23.83;;
51852;SDS011;37894;53.172;6.598;2023-05-07T00:18:55;36.88;;;24.35;;
51852;SDS011;37894;53.172;6.598;2023-05-07T00:21:21;33.03;;;23.10;;
51852;SDS011;37894;53.172;6.598;2023-05-07T00:23:47;36.45;;;24.23;;
51852;SDS011;37894;53.172;6.598;2023-05-07T00:26:13;39.25;;;25.08;;
51852;SDS011;37894;53.172;6.598;2023-05-07T00:28:39;45.97;;;24.45;;
51852;SDS011;37894;53.172;6.598;2023-05-07T00:31:05;43.75;;;26.58;;
51852;SDS011;37894;53.172;6.598;2023-05-07T00:33:31;38.08;;;25.73;;
51852;SDS011;37894;53.172;6.598;2023-05-07T00:35:57;42.63;;;25.65;;
51852;SDS011;37894;53.172;6.598;2023-05-07T00:38:23;41.72;;;25.60;;
51852;SDS011;37894;53.172;6.598;2023-05-07T00:40:52;40.90;;;26.25;;
51852;SDS011;37894;53.172;6.598;2023-05-07T00:43:19;43.78;;;26.40;;
51852;SDS011;37894;53.172;6.598;2023-05-07T00:45:45;41.15;;;25.80;;
51852;SDS011;37894;53.172;6.598;2023-05-07T00:48:11;45.92;;;26.48;;
51852;SDS011;37894;53.172;6.598;2023-05-07T00:50:38;46.58;;;27.08;;
51852;SDS011;37894;53.172;6.598;2023-05-07T00:53:04;45.15;;;27.90;;
51852;SDS011;37894;53.172;6.598;2023-05-07T00:55:30;51.05;;;28.20;;
51852;SDS011;37894;53.172;6.598;2023-05-07T00:57:57;46.70;;;28.38;;
51852;SDS011;37894;53.172;6.598;2023-05-07T01:00:23;44.75;;;27.75;;
51852;SDS011;37894;53.172;6.598;2023-05-07T01:02:50;48.85;;;28.33;;
51852;SDS011;37894;53.172;6.598;2023-05-07T01:05:17;45.35;;;29.35;;
51852;SDS011;37894;53.172;6.598;2023-05-07T01:07:44;48.63;;;28.98;;
51852;SDS011;37894;53.172;6.598;2023-05-07T01:10:10;50.38;;;29.20;;
51852;SDS011;37894;53.172;6.598;2023-05-07T01:12:37;47.33;;;29.63;;
51852;SDS011;37894;53.172;6.598;2023-05-07T01:15:05;45.97;;;29.27;;
51852;SDS011;37894;53.172;6.598;2023-05-07T01:17:36;50.95;;;30.40;;
51852;SDS011;37894;53.172;6.598;2023-05-07T01:20:04;46.67;;;28.00;;
51852;SDS011;37894;53.172;6.598;2023-05-07T01:22:35;56.65;;;32.10;;
51852;SDS011;37894;53.172;6.598;2023-05-07T01:25:07;49.08;;;29.85;;
51852;SDS011;37894;53.172;6.598;2023-05-07T01:27:33;50.67;;;29.73;;
51852;SDS011;37894;53.172;6.598;2023-05-07T01:30:00;63.03;;;31.52;;
51852;SDS011;37894;53.172;6.598;2023-05-07T01:32:43;56.03;;;31.75;;
51852;SDS011;37894;53.172;6.598;2023-05-07T01:35:13;54.35;;;30.85;;
51852;SDS011;37894;53.172;6.598;2023-05-07T01:37:47;55.08;;;32.72;;
51852;SDS011;37894;53.172;6.598;2023-05-07T01:40:14;60.53;;;33.45;;
51852;SDS011;37894;53.172;6.598;2023-05-07T01:42:41;59.70;;;33.67;;
51852;SDS011;37894;53.172;6.598;2023-05-07T01:45:09;58.75;;;32.20;;
51852;SDS011;37894;53.172;6.598;2023-05-07T01:47:35;59.60;;;32.83;;
51852;SDS011;37894;53.172;6.598;2023-05-07T01:50:03;52.80;;;31.88;;
51852;SDS011;37894;53.172;6.598;2023-05-07T01:52:33;58.22;;;33.17;;
51852;SDS011;37894;53.172;6.598;2023-05-07T01:55:00;62.38;;;34.03;;
51852;SDS011;37894;53.172;6.598;2023-05-07T01:57:26;61.95;;;32.03;;
51852;SDS011;37894;53.172;6.598;2023-05-07T01:59:52;66.93;;;35.53;;
51852;SDS011;37894;53.172;6.598;2023-05-07T02:02:18;64.93;;;34.03;;
51852;SDS011;37894;53.172;6.598;2023-05-07T02:04:44;59.25;;;33.85;;
51852;SDS011;37894;53.172;6.598;2023-05-07T02:07:10;56.65;;;31.85;;
51852;SDS011;37894;53.172;6.598;2023-05-07T02:09:36;63.13;;;35.00;;
51852;SDS011;37894;53.172;6.598;2023-05-07T02:12:02;62.10;;;34.15;;
51852;SDS011;37894;53.172;6.598;2023-05-07T02:14:28;61.22;;;33.30;;
51852;SDS011;37894;53.172;6.598;2023-05-07T02:16:53;60.70;;;34.10;;
51852;SDS011;37894;53.172;6.598;2023-05-07T02:19:19;60.92;;;34.97;;
51852;SDS011;37894;53.172;6.598;2023-05-07T02:21:54;63.67;;;34.28;;
51852;SDS011;37894;53.172;6.598;2023-05-07T02:24:20;59.70;;;33.10;;
51852;SDS011;37894;53.172;6.598;2023-05-07T02:26:46;63.25;;;34.45;;
51852;SDS011;37894;53.172;6.598;2023-05-07T02:29:12;63.78;;;32.75;;
51852;SDS011;37894;53.172;6.598;2023-05-07T02:31:38;64.07;;;36.17;;
51852;SDS011;37894;53.172;6.598;2023-05-07T02:34:04;72.78;;;35.35;;
51852;SDS011;37894;53.172;6.598;2023-05-07T02:36:30;76.60;;;36.72;;
51852;SDS011;37894;53.172;6.598;2023-05-07T02:38:56;72.28;;;36.30;;
51852;SDS011;37894;53.172;6.598;2023-05-07T02:41:22;75.57;;;36.30;;
51852;SDS011;37894;53.172;6.598;2023-05-07T02:43:48;64.50;;;34.55;;
51852;SDS011;37894;53.172;6.598;2023-05-07T02:46:14;66.68;;;34.53;;
51852;SDS011;37894;53.172;6.598;2023-05-07T02:48:40;58.65;;;31.42;;
51852;SDS011;37894;53.172;6.598;2023-05-07T02:51:06;67.07;;;34.72;;
51852;SDS011;37894;53.172;6.598;2023-05-07T02:53:33;59.58;;;33.22;;
51852;SDS011;37894;53.172;6.598;2023-05-07T02:55:59;63.42;;;33.90;;
51852;SDS011;37894;53.172;6.598;2023-05-07T02:58:26;61.90;;;33.83;;
51852;SDS011;37894;53.172;6.598;2023-05-07T03:00:52;76.63;;;34.97;;
51852;SDS011;37894;53.172;6.598;2023-05-07T03:03:19;61.00;;;33.75;;
51852;SDS011;37894;53.172;6.598;2023-05-07T03:05:46;63.20;;;34.30;;
51852;SDS011;37894;53.172;6.598;2023-05-07T03:08:12;75.15;;;36.05;;
51852;SDS011;37894;53.172;6.598;2023-05-07T03:10:38;71.63;;;35.53;;
51852;SDS011;37894;53.172;6.598;2023-05-07T03:13:04;65.18;;;35.35;;
51852;SDS011;37894;53.172;6.598;2023-05-07T03:15:30;71.28;;;35.63;;
51852;SDS011;37894;53.172;6.598;2023-05-07T03:17:56;66.57;;;33.50;;
51852;SDS011;37894;53.172;6.598;2023-05-07T03:20:23;68.63;;;34.70;;
51852;SDS011;37894;53.172;6.598;2023-05-07T03:22:49;76.82;;;36.85;;
51852;SDS011;37894;53.172;6.598;2023-05-07T03:25:15;67.10;;;35.58;;
51852;SDS011;37894;53.172;6.598;2023-05-07T03:27:41;70.47;;;34.72;;
51852;SDS011;37894;53.172;6.598;2023-05-07T03:30:07;64.50;;;35.78;;
51852;SDS011;37894;53.172;6.598;2023-05-07T03:32:34;68.18;;;35.35;;
51852;SDS011;37894;53.172;6.598;2023-05-07T03:35:00;69.50;;;36.30;;
51852;SDS011;37894;53.172;6.598;2023-05-07T03:37:27;67.53;;;34.33;;
51852;SDS011;37894;53.172;6.598;2023-05-07T03:39:53;64.45;;;34.65;;
51852;SDS011;37894;53.172;6.598;2023-05-07T03:42:19;66.70;;;35.55;;
51852;SDS011;37894;53.172;6.598;2023-05-07T03:44:45;59.05;;;34.28;;
51852;SDS011;37894;53.172;6.598;2023-05-07T03:47:11;70.38;;;35.83;;
51852;SDS011;37894;53.172;6.598;2023-05-07T03:49:38;69.93;;;34.67;;
51852;SDS011;37894;53.172;6.598;2023-05-07T03:52:04;65.72;;;36.08;;
51852;SDS011;37894;53.172;6.598;2023-05-07T03:54:31;63.35;;;34.70;;
51852;SDS011;37894;53.172;6.598;2023-05-07T03:56:57;71.63;;;36.55;;
51852;SDS011;37894;53.172;6.598;2023-05-07T03:59:22;64.45;;;34.60;;
51852;SDS011;37894;53.172;6.598;2023-05-07T04:01:48;65.53;;;34.42;;
51852;SDS011;37894;53.172;6.598;2023-05-07T04:04:14;58.97;;;33.60;;
51852;SDS011;37894;53.172;6.598;2023-05-07T04:06:41;69.85;;;34.80;;
51852;SDS011;37894;53.172;6.598;2023-05-07T04:09:07;67.72;;;34.60;;
51852;SDS011;37894;53.172;6.598;2023-05-07T04:11:32;66.97;;;34.35;;
51852;SDS011;37894;53.172;6.598;2023-05-07T04:13:59;62.45;;;33.83;;
51852;SDS011;37894;53.172;6.598;2023-05-07T04:16:25;65.55;;;34.20;;
51852;SDS011;37894;53.172;6.598;2023-05-07T04:18:51;66.50;;;34.92;;
51852;SDS011;37894;53.172;6.598;2023-05-07T04:21:19;66.97;;;34.60;;
51852;SDS011;37894;53.172;6.598;2023-05-07T04:23:46;66.97;;;34.00;;
51852;SDS011;37894;53.172;6.598;2023-05-07T04:26:12;65.70;;;35.17;;
51852;SDS011;37894;53.172;6.598;2023-05-07T04:28:39;68.35;;;36.55;;
51852;SDS011;37894;53.172;6.598;2023-05-07T04:31:05;61.05;;;34.97;;
51852;SDS011;37894;53.172;6.598;2023-05-07T04:33:32;73.68;;;37.25;;
51852;SDS011;37894;53.172;6.598;2023-05-07T04:35:58;68.47;;;36.30;;
51852;SDS011;37894;53.172;6.598;2023-05-07T04:38:30;64.05;;;36.38;;
51852;SDS011;37894;53.172;6.598;2023-05-07T04:40:56;66.07;;;33.30;;
51852;SDS011;37894;53.172;6.598;2023-05-07T04:43:22;73.55;;;36.85;;
51852;SDS011;37894;53.172;6.598;2023-05-07T04:45:52;61.38;;;34.53;;
51852;SDS011;37894;53.172;6.598;2023-05-07T04:48:17;60.15;;;33.33;;
51852;SDS011;37894;53.172;6.598;2023-05-07T04:50:51;51.92;;;30.90;;
51852;SDS011;37894;53.172;6.598;2023-05-07T04:53:16;56.97;;;33.42;;
51852;SDS011;37894;53.172;6.598;2023-05-07T04:55:43;55.83;;;31.70;;
51852;SDS011;37894;53.172;6.598;2023-05-07T04:58:09;63.50;;;33.30;;
51852;SDS011;37894;53.172;6.598;2023-05-07T05:00:36;48.30;;;29.23;;
51852;SDS011;37894;53.172;6.598;2023-05-07T05:03:02;59.40;;;32.92;;
51852;SDS011;37894;53.172;6.598;2023-05-07T05:05:27;53.05;;;31.30;;
51852;SDS011;37894;53.172;6.598;2023-05-07T05:07:53;52.83;;;30.92;;
51852;SDS011;37894;53.172;6.598;2023-05-07T05:10:19;51.33;;;31.13;;
51852;SDS011;37894;53.172;6.598;2023-05-07T05:12:45;53.50;;;29.55;;
51852;SDS011;37894;53.172;6.598;2023-05-07T05:15:12;52.13;;;32.30;;
51852;SDS011;37894;53.172;6.598;2023-05-07T05:17:40;52.72;;;31.33;;
51852;SDS011;37894;53.172;6.598;2023-05-07T05:20:06;55.05;;;30.83;;
51852;SDS011;37894;53.172;6.598;2023-05-07T05:22:32;54.75;;;31.00;;
51852;SDS011;37894;53.172;6.598;2023-05-07T05:25:03;55.80;;;31.92;;
51852;SDS011;37894;53.172;6.598;2023-05-07T05:28:02;55.03;;;31.13;;
51852;SDS011;37894;53.172;6.598;2023-05-07T05:30:41;50.95;;;31.83;;
51852;SDS011;37894;53.172;6.598;2023-05-07T05:33:07;54.70;;;30.83;;
51852;SDS011;37894;53.172;6.598;2023-05-07T05:35:59;48.72;;;30.80;;
51852;SDS011;37894;53.172;6.598;2023-05-07T05:38:28;56.55;;;31.95;;
51852;SDS011;37894;53.172;6.598;2023-05-07T05:40:54;52.85;;;31.27;;
51852;SDS011;37894;53.172;6.598;2023-05-07T05:43:20;52.30;;;31.10;;
51852;SDS011;37894;53.172;6.598;2023-05-07T05:45:46;50.85;;;31.05;;
51852;SDS011;37894;53.172;6.598;2023-05-07T05:48:12;47.25;;;29.52;;
51852;SDS011;37894;53.172;6.598;2023-05-07T05:50:38;48.55;;;28.65;;
51852;SDS011;37894;53.172;6.598;2023-05-07T05:53:04;48.55;;;29.50;;
51852;SDS011;37894;53.172;6.598;2023-05-07T05:55:30;43.75;;;27.55;;
51852;SDS011;37894;53.172;6.598;2023-05-07T05:57:57;51.22;;;30.27;;
51852;SDS011;37894;53.172;6.598;2023-05-07T06:00:23;48.35;;;27.13;;
51852;SDS011;37894;53.172;6.598;2023-05-07T06:02:50;49.40;;;29.55;;
51852;SDS011;37894;53.172;6.598;2023-05-07T06:05:16;49.38;;;29.13;;
51852;SDS011;37894;53.172;6.598;2023-05-07T06:07:42;41.95;;;28.08;;
51852;SDS011;37894;53.172;6.598;2023-05-07T06:10:08;46.25;;;29.60;;
51852;SDS011;37894;53.172;6.598;2023-05-07T06:12:34;41.47;;;27.30;;
51852;SDS011;37894;53.172;6.598;2023-05-07T06:15:00;45.72;;;29.85;;
51852;SDS011;37894;53.172;6.598;2023-05-07T06:17:26;48.08;;;28.08;;
51852;SDS011;37894;53.172;6.598;2023-05-07T06:19:52;43.72;;;27.70;;
51852;SDS011;37894;53.172;6.598;2023-05-07T06:22:18;43.22;;;26.52;;
51852;SDS011;37894;53.172;6.598;2023-05-07T06:24:44;43.50;;;27.60;;
51852;SDS011;37894;53.172;6.598;2023-05-07T06:27:11;45.13;;;28.05;;
51852;SDS011;37894;53.172;6.598;2023-05-07T06:29:37;45.90;;;28.73;;
51852;SDS011;37894;53.172;6.598;2023-05-07T06:32:09;41.28;;;26.02;;
51852;SDS011;37894;53.172;6.598;2023-05-07T06:34:36;39.63;;;26.48;;
51852;SDS011;37894;53.172;6.598;2023-05-07T06:37:02;39.80;;;25.15;;
51852;SDS011;37894;53.172;6.598;2023-05-07T06:39:28;43.80;;;26.42;;
51852;SDS011;37894;53.172;6.598;2023-05-07T06:41:54;43.30;;;26.70;;
51852;SDS011;37894;53.172;6.598;2023-05-07T06:44:20;44.85;;;26.50;;
51852;SDS011;37894;53.172;6.598;2023-05-07T06:46:46;44.50;;;26.40;;
51852;SDS011;37894;53.172;6.598;2023-05-07T06:49:12;39.33;;;26.50;;
51852;SDS011;37894;53.172;6.598;2023-05-07T06:51:38;40.92;;;26.10;;
51852;SDS011;37894;53.172;6.598;2023-05-07T06:54:04;39.35;;;25.77;;
51852;SDS011;37894;53.172;6.598;2023-05-07T06:56:32;39.35;;;25.77;;
51852;SDS011;37894;53.172;6.598;2023-05-07T06:58:59;41.10;;;27.10;;
51852;SDS011;37894;53.172;6.598;2023-05-07T07:01:25;38.97;;;23.88;;
51852;SDS011;37894;53.172;6.598;2023-05-07T07:03:52;41.05;;;27.10;;
51852;SDS011;37894;53.172;6.598;2023-05-07T07:06:18;39.03;;;25.80;;
51852;SDS011;37894;53.172;6.598;2023-05-07T07:08:44;37.30;;;23.92;;
51852;SDS011;37894;53.172;6.598;2023-05-07T07:11:10;37.47;;;25.10;;
51852;SDS011;37894;53.172;6.598;2023-05-07T07:13:36;42.03;;;26.98;;
51852;SDS011;37894;53.172;6.598;2023-05-07T07:16:09;41.63;;;26.02;;
51852;SDS011;37894;53.172;6.598;2023-05-07T07:18:35;37.40;;;24.27;;
51852;SDS011;37894;53.172;6.598;2023-05-07T07:21:01;37.83;;;24.95;;
51852;SDS011;37894;53.172;6.598;2023-05-07T07:23:27;39.95;;;25.52;;
51852;SDS011;37894;53.172;6.598;2023-05-07T07:25:53;41.08;;;24.60;;
51852;SDS011;37894;53.172;6.598;2023-05-07T07:28:20;37.25;;;24.13;;
51852;SDS011;37894;53.172;6.598;2023-05-07T07:30:46;36.35;;;24.65;;
51852;SDS011;37894;53.172;6.598;2023-05-07T07:33:23;37.47;;;24.58;;
51852;SDS011;37894;53.172;6.598;2023-05-07T07:35:50;41.50;;;26.23;;
51852;SDS011;37894;53.172;6.598;2023-05-07T07:38:35;38.65;;;24.42;;
51852;SDS011;37894;53.172;6.598;2023-05-07T07:41:01;39.47;;;23.63;;
51852;SDS011;37894;53.172;6.598;2023-05-07T07:43:27;39.03;;;24.27;;
51852;SDS011;37894;53.172;6.598;2023-05-07T07:45:53;38.85;;;26.20;;
51852;SDS011;37894;53.172;6.598;2023-05-07T07:48:19;37.85;;;24.27;;
51852;SDS011;37894;53.172;6.598;2023-05-07T07:50:44;40.72;;;24.63;;
51852;SDS011;37894;53.172;6.598;2023-05-07T07:53:13;33.60;;;22.60;;
51852;SDS011;37894;53.172;6.598;2023-05-07T07:55:39;35.90;;;23.95;;
51852;SDS011;37894;53.172;6.598;2023-05-07T07:58:05;36.10;;;23.75;;
51852;SDS011;37894;53.172;6.598;2023-05-07T08:00:31;37.15;;;23.67;;
51852;SDS011;37894;53.172;6.598;2023-05-07T08:02:56;37.08;;;23.77;;
51852;SDS011;37894;53.172;6.598;2023-05-07T08:05:22;37.75;;;25.58;;
51852;SDS011;37894;53.172;6.598;2023-05-07T08:07:48;37.25;;;23.63;;
51852;SDS011;37894;53.172;6.598;2023-05-07T08:10:17;34.42;;;23.35;;
51852;SDS011;37894;53.172;6.598;2023-05-07T08:12:47;36.45;;;22.92;;
51852;SDS011;37894;53.172;6.598;2023-05-07T08:15:16;36.33;;;23.55;;
51852;SDS011;37894;53.172;6.598;2023-05-07T08:17:42;42.13;;;22.73;;
51852;SDS011;37894;53.172;6.598;2023-05-07T08:20:08;32.83;;;21.98;;
51852;SDS011;37894;53.172;6.598;2023-05-07T08:22:34;37.53;;;24.17;;
51852;SDS011;37894;53.172;6.598;2023-05-07T08:25:03;34.30;;;22.83;;
51852;SDS011;37894;53.172;6.598;2023-05-07T08:27:29;35.38;;;22.70;;
51852;SDS011;37894;53.172;6.598;2023-05-07T08:29:54;33.80;;;22.95;;
51852;SDS011;37894;53.172;6.598;2023-05-07T08:32:20;32.15;;;21.75;;
51852;SDS011;37894;53.172;6.598;2023-05-07T08:34:47;34.72;;;22.98;;
51852;SDS011;37894;53.172;6.598;2023-05-07T08:37:13;31.50;;;21.45;;
51852;SDS011;37894;53.172;6.598;2023-05-07T08:39:38;30.98;;;20.85;;
51852;SDS011;37894;53.172;6.598;2023-05-07T08:42:04;33.55;;;21.90;;
51852;SDS011;37894;53.172;6.598;2023-05-07T08:44:33;28.30;;;20.50;;
51852;SDS011;37894;53.172;6.598;2023-05-07T08:47:00;31.02;;;21.98;;
51852;SDS011;37894;53.172;6.598;2023-05-07T08:49:27;32.83;;;20.63;;
51852;SDS011;37894;53.172;6.598;2023-05-07T08:51:53;31.23;;;22.17;;
51852;SDS011;37894;53.172;6.598;2023-05-07T08:54:20;33.88;;;21.45;;
51852;SDS011;37894;53.172;6.598;2023-05-07T08:56:46;30.45;;;20.75;;
51852;SDS011;37894;53.172;6.598;2023-05-07T08:59:12;32.17;;;21.55;;
51852;SDS011;37894;53.172;6.598;2023-05-07T09:01:38;30.83;;;21.30;;
51852;SDS011;37894;53.172;6.598;2023-05-07T09:04:04;28.75;;;18.55;;
51852;SDS011;37894;53.172;6.598;2023-05-07T09:06:31;33.50;;;21.00;;
51852;SDS011;37894;53.172;6.598;2023-05-07T09:08:58;32.75;;;22.38;;
51852;SDS011;37894;53.172;6.598;2023-05-07T09:11:26;29.48;;;20.35;;
51852;SDS011;37894;53.172;6.598;2023-05-07T09:13:55;28.38;;;20.00;;
51852;SDS011;37894;53.172;6.598;2023-05-07T09:16:23;27.67;;;18.77;;
51852;SDS011;37894;53.172;6.598;2023-05-07T09:18:52;29.88;;;20.35;;
51852;SDS011;37894;53.172;6.598;2023-05-07T09:21:19;33.90;;;22.00;;
51852;SDS011;37894;53.172;6.598;2023-05-07T09:23:47;28.55;;;20.83;;
51852;SDS011;37894;53.172;6.598;2023-05-07T09:26:17;27.42;;;20.20;;
51852;SDS011;37894;53.172;6.598;2023-05-07T09:28:43;27.05;;;19.27;;
51852;SDS011;37894;53.172;6.598;2023-05-07T09:31:10;30.08;;;20.10;;
51852;SDS011;37894;53.172;6.598;2023-05-07T09:33:36;27.90;;;20.45;;
51852;SDS011;37894;53.172;6.598;2023-05-07T09:36:03;29.10;;;20.52;;
51852;SDS011;37894;53.172;6.598;2023-05-07T09:38:30;27.83;;;19.92;;
51852;SDS011;37894;53.172;6.598;2023-05-07T09:41:01;29.35;;;19.98;;
51852;SDS011;37894;53.172;6.598;2023-05-07T09:43:38;29.20;;;21.00;;
51852;SDS011;37894;53.172;6.598;2023-05-07T09:46:09;28.73;;;19.55;;
51852;SDS011;37894;53.172;6.598;2023-05-07T09:48:38;27.73;;;21.50;;
51852;SDS011;37894;53.172;6.598;2023-05-07T09:51:06;27.38;;;19.83;;
51852;SDS011;37894;53.172;6.598;2023-05-07T09:53:40;26.92;;;19.75;;
51852;SDS011;37894;53.172;6.598;2023-05-07T09:56:07;27.92;;;20.52;;
51852;SDS011;37894;53.172;6.598;2023-05-07T09:58:33;29.55;;;19.40;;
51852;SDS011;37894;53.172;6.598;2023-05-07T10:01:02;26.70;;;19.45;;
51852;SDS011;37894;53.172;6.598;2023-05-07T10:03:28;26.20;;;19.25;;
51852;SDS011;37894;53.172;6.598;2023-05-07T10:05:57;25.45;;;19.13;;
51852;SDS011;37894;53.172;6.598;2023-05-07T10:08:23;27.55;;;18.38;;
51852;SDS011;37894;53.172;6.598;2023-05-07T10:10:49;26.42;;;19.08;;
51852;SDS011;37894;53.172;6.598;2023-05-07T10:13:16;29.05;;;18.80;;
51852;SDS011;37894;53.172;6.598;2023-05-07T10:15:44;28.40;;;20.27;;
51852;SDS011;37894;53.172;6.598;2023-05-07T10:18:10;26.60;;;19.23;;
51852;SDS011;37894;53.172;6.598;2023-05-07T10:20:38;27.80;;;18.77;;
51852;SDS011;37894;53.172;6.598;2023-05-07T10:23:05;27.60;;;19.08;;
51852;SDS011;37894;53.172;6.598;2023-05-07T10:25:32;25.73;;;19.13;;
51852;SDS011;37894;53.172;6.598;2023-05-07T10:27:59;23.55;;;17.25;;
51852;SDS011;37894;53.172;6.598;2023-05-07T10:33:08;27.67;;;18.30;;
51852;SDS011;37894;53.172;6.598;2023-05-07T10:35:39;24.23;;;17.80;;
51852;SDS011;37894;53.172;6.598;2023-05-07T10:38:07;23.27;;;17.67;;
51852;SDS011;37894;53.172;6.598;2023-05-07T10:40:34;23.17;;;17.15;;
51852;SDS011;37894;53.172;6.598;2023-05-07T10:43:01;26.40;;;19.23;;
51852;SDS011;37894;53.172;6.598;2023-05-07T10:45:30;23.92;;;18.02;;
51852;SDS011;37894;53.172;6.598;2023-05-07T10:48:15;22.75;;;16.92;;
51852;SDS011;37894;53.172;6.598;2023-05-07T10:50:42;23.00;;;17.20;;
51852;SDS011;37894;53.172;6.598;2023-05-07T10:55:46;20.88;;;16.10;;
51852;SDS011;37894;53.172;6.598;2023-05-07T11:00:59;20.95;;;16.63;;
51852;SDS011;37894;53.172;6.598;2023-05-07T11:03:26;20.42;;;14.93;;
51852;SDS011;37894;53.172;6.598;2023-05-07T11:06:12;19.73;;;15.43;;
51852;SDS011;37894;53.172;6.598;2023-05-07T11:08:57;21.27;;;15.88;;
51852;SDS011;37894;53.172;6.598;2023-05-07T11:17:06;18.55;;;14.52;;
51852;SDS011;37894;53.172;6.598;2023-05-07T11:25:00;19.17;;;14.63;;
51852;SDS011;37894;53.172;6.598;2023-05-07T11:27:27;17.30;;;14.43;;
51852;SDS011;37894;53.172;6.598;2023-05-07T11:29:54;17.50;;;14.02;;
51852;SDS011;37894;53.172;6.598;2023-05-07T11:32:28;17.20;;;14.02;;
51852;SDS011;37894;53.172;6.598;2023-05-07T11:34:55;18.55;;;14.88;;
51852;SDS011;37894;53.172;6.598;2023-05-07T11:37:22;18.80;;;14.25;;
51852;SDS011;37894;53.172;6.598;2023-05-07T11:39:49;16.00;;;13.50;;
51852;SDS011;37894;53.172;6.598;2023-05-07T11:42:32;17.13;;;14.38;;
51852;SDS011;37894;53.172;6.598;2023-05-07T11:45:00;16.33;;;13.95;;
51852;SDS011;37894;53.172;6.598;2023-05-07T11:47:26;16.30;;;13.82;;
51852;SDS011;37894;53.172;6.598;2023-05-07T11:49:55;16.38;;;13.13;;
51852;SDS011;37894;53.172;6.598;2023-05-07T11:52:22;17.67;;;13.52;;
51852;SDS011;37894;53.172;6.598;2023-05-07T11:54:49;17.63;;;12.65;;
51852;SDS011;37894;53.172;6.598;2023-05-07T11:57:19;13.82;;;11.60;;
51852;SDS011;37894;53.172;6.598;2023-05-07T11:59:46;15.40;;;12.25;;
51852;SDS011;37894;53.172;6.598;2023-05-07T12:02:13;16.05;;;13.05;;
51852;SDS011;37894;53.172;6.598;2023-05-07T12:04:40;16.20;;;12.45;;
51852;SDS011;37894;53.172;6.598;2023-05-07T12:07:11;13.93;;;12.38;;
51852;SDS011;37894;53.172;6.598;2023-05-07T12:09:38;13.63;;;11.48;;
51852;SDS011;37894;53.172;6.598;2023-05-07T12:12:04;15.20;;;12.23;;
51852;SDS011;37894;53.172;6.598;2023-05-07T12:14:30;15.98;;;12.07;;
51852;SDS011;37894;53.172;6.598;2023-05-07T12:16:57;14.07;;;12.30;;
51852;SDS011;37894;53.172;6.598;2023-05-07T12:19:27;14.85;;;12.38;;
51852;SDS011;37894;53.172;6.598;2023-05-07T12:21:56;14.55;;;12.45;;
51852;SDS011;37894;53.172;6.598;2023-05-07T12:24:23;15.38;;;12.63;;
51852;SDS011;37894;53.172;6.598;2023-05-07T12:26:48;14.18;;;12.20;;
51852;SDS011;37894;53.172;6.598;2023-05-07T12:29:14;14.32;;;11.88;;
51852;SDS011;37894;53.172;6.598;2023-05-07T12:31:43;13.63;;;12.00;;
51852;SDS011;37894;53.172;6.598;2023-05-07T12:34:12;12.82;;;11.43;;
51852;SDS011;37894;53.172;6.598;2023-05-07T12:36:38;16.77;;;11.85;;
51852;SDS011;37894;53.172;6.598;2023-05-07T12:39:05;14.98;;;12.07;;
51852;SDS011;37894;53.172;6.598;2023-05-07T12:44:18;13.63;;;11.65;;
51852;SDS011;37894;53.172;6.598;2023-05-07T12:46:46;14.20;;;12.02;;
51852;SDS011;37894;53.172;6.598;2023-05-07T12:49:12;13.25;;;11.85;;
51852;SDS011;37894;53.172;6.598;2023-05-07T12:51:37;14.48;;;12.43;;
51852;SDS011;37894;53.172;6.598;2023-05-07T12:54:03;12.27;;;10.98;;
51852;SDS011;37894;53.172;6.598;2023-05-07T12:56:35;13.90;;;12.23;;
51852;SDS011;37894;53.172;6.598;2023-05-07T12:59:01;13.65;;;11.95;;
51852;SDS011;37894;53.172;6.598;2023-05-07T13:01:30;14.63;;;12.23;;
51852;SDS011;37894;53.172;6.598;2023-05-07T13:04:05;16.55;;;12.07;;
51852;SDS011;37894;53.172;6.598;2023-05-07T13:06:31;14.30;;;11.43;;
51852;SDS011;37894;53.172;6.598;2023-05-07T13:08:56;13.40;;;11.40;;
51852;SDS011;37894;53.172;6.598;2023-05-07T13:11:22;12.85;;;11.50;;
51852;SDS011;37894;53.172;6.598;2023-05-07T13:13:48;13.95;;;11.95;;
51852;SDS011;37894;53.172;6.598;2023-05-07T13:16:13;12.57;;;10.90;;
51852;SDS011;37894;53.172;6.598;2023-05-07T13:18:39;12.35;;;11.15;;
51852;SDS011;37894;53.172;6.598;2023-05-07T13:21:06;13.60;;;10.90;;
51852;SDS011;37894;53.172;6.598;2023-05-07T13:23:31;16.23;;;11.82;;
51852;SDS011;37894;53.172;6.598;2023-05-07T13:25:58;13.43;;;11.30;;
51852;SDS011;37894;53.172;6.598;2023-05-07T13:28:24;12.32;;;10.80;;
51852;SDS011;37894;53.172;6.598;2023-05-07T13:30:52;12.43;;;10.77;;
51852;SDS011;37894;53.172;6.598;2023-05-07T13:33:19;11.02;;;9.88;;
51852;SDS011;37894;53.172;6.598;2023-05-07T13:35:45;11.52;;;10.32;;
51852;SDS011;37894;53.172;6.598;2023-05-07T13:38:10;11.07;;;9.95;;
51852;SDS011;37894;53.172;6.598;2023-05-07T13:40:36;11.05;;;9.10;;
51852;SDS011;37894;53.172;6.598;2023-05-07T13:43:02;11.80;;;9.85;;
51852;SDS011;37894;53.172;6.598;2023-05-07T13:48:04;12.52;;;11.23;;
51852;SDS011;37894;53.172;6.598;2023-05-07T13:50:30;11.02;;;9.88;;
51852;SDS011;37894;53.172;6.598;2023-05-07T13:52:56;12.35;;;10.90;;
51852;SDS011;37894;53.172;6.598;2023-05-07T13:55:23;11.45;;;10.25;;
51852;SDS011;37894;53.172;6.598;2023-05-07T13:57:56;11.88;;;9.68;;
51852;SDS011;37894;53.172;6.598;2023-05-07T14:00:23;11.55;;;10.25;;
51852;SDS011;37894;53.172;6.598;2023-05-07T14:02:49;11.82;;;10.63;;
51852;SDS011;37894;53.172;6.598;2023-05-07T14:05:15;11.32;;;9.27;;
51852;SDS011;37894;53.172;6.598;2023-05-07T14:07:41;11.48;;;10.27;;
51852;SDS011;37894;53.172;6.598;2023-05-07T14:10:07;10.77;;;9.68;;
51852;SDS011;37894;53.172;6.598;2023-05-07T14:12:33;10.57;;;9.57;;
51852;SDS011;37894;53.172;6.598;2023-05-07T14:14:59;12.18;;;9.90;;
51852;SDS011;37894;53.172;6.598;2023-05-07T14:17:25;14.75;;;11.13;;
51852;SDS011;37894;53.172;6.598;2023-05-07T14:19:52;11.85;;;10.23;;
51852;SDS011;37894;53.172;6.598;2023-05-07T14:22:19;11.68;;;10.15;;
51852;SDS011;37894;53.172;6.598;2023-05-07T14:24:49;11.82;;;10.27;;
51852;SDS011;37894;53.172;6.598;2023-05-07T14:27:15;12.05;;;10.80;;
51852;SDS011;37894;53.172;6.598;2023-05-07T14:29:41;14.05;;;9.88;;
51852;SDS011;37894;53.172;6.598;2023-05-07T14:32:08;12.90;;;11.57;;
51852;SDS011;37894;53.172;6.598;2023-05-07T14:34:34;11.63;;;10.43;;
51852;SDS011;37894;53.172;6.598;2023-05-07T14:37:00;12.50;;;11.05;;
51852;SDS011;37894;53.172;6.598;2023-05-07T14:39:26;12.55;;;10.68;;
51852;SDS011;37894;53.172;6.598;2023-05-07T14:41:52;13.02;;;11.18;;
51852;SDS011;37894;53.172;6.598;2023-05-07T14:44:21;14.45;;;12.95;;
51852;SDS011;37894;53.172;6.598;2023-05-07T14:46:47;13.10;;;11.70;;